Aurora, North Carolina
Current Conditions -  °F | °C
As of 4:54 AM on Friday 31 Oct 2014 (Local Time) from KEWN Reporting Station
Broken Clouds Broken Clouds  
Wind Chill: 54°   Ceiling: 5500
Heat Index: 54°   Visibility: 10mi
Dew Point: 47°   Wind: 7mph
Humidity: 77%   Direction: 30°NNE
Pressure: 29.92"   Gusts: NA
Location:  35.31°N, 76.79°W
Report Text: KEWN 310854Z AUTO 03006KT 10SM BKN055 12/08 A2992 RMK AO2 SLP131 T01220083 58014
Loading
Personal Weather Stations






























Interactive Weather Map
Tropical Storm Tracking
New forecast layout! Learn more

10-Day Weather Forecast

Advertisements
Track Severe Weather on mobile